Time;durP1;ratioP1;P1;durP2;ratioP2;P2;SDS_P1;SDS_P2;PMS_P1;PMS_P2;Temp;Humidity;BMP_temperature;BMP_pressure;BME280_temperature;BME280_humidity;BME280_pressure;Samples;Min_cycle;Max_cycle;Signal;HPM_P1;HPM_P2
2022/12/08 00:00:07;;;;;;;;;;;18.60;59.90;;;;;;5030237;28;1424;-73
2022/12/08 00:02:32;;;;;;;;;;;18.60;59.30;;;;;;5042332;28;1173;-73
2022/12/08 00:10:26;;;;;;;;;;;18.60;59.40;;;;;;5043228;28;1327;-73
2022/12/08 00:12:51;;;;;;;;;;;18.70;59.40;;;;;;5042708;28;1237;-73
2022/12/08 00:15:17;;;;;;;;;;;18.70;59.50;;;;;;5057724;28;1345;-73
2022/12/08 00:17:42;;;;;;;;;;;18.60;59.40;;;;;;5058784;28;848;-73
2022/12/08 00:20:08;;;;;;;;;;;18.60;59.40;;;;;;5060717;28;1343;-73
2022/12/08 00:22:34;;;;;;;;;;;18.60;59.40;;;;;;5045828;28;1147;-73
2022/12/08 00:24:59;;;;;;;;;;;18.60;59.40;;;;;;5060697;28;1902;-73
2022/12/08 00:27:24;;;;;;;;;;;18.60;59.40;;;;;;5058921;28;932;-73
2022/12/08 00:29:50;;;;;;;;;;;18.60;59.40;;;;;;5043168;28;1342;-74
2022/12/08 00:32:15;;;;;;;;;;;18.60;59.40;;;;;;5060285;28;1045;-73
2022/12/08 00:34:41;;;;;;;;;;;18.60;59.40;;;;;;5056447;28;855;-74
2022/12/08 00:37:06;;;;;;;;;;;18.60;59.40;;;;;;5054826;28;930;-73
2022/12/08 00:39:32;;;;;;;;;;;18.60;59.50;;;;;;5044527;28;1368;-73
2022/12/08 00:42:12;;;;;;;;;;;18.60;59.50;;;;;;5057977;28;928;-73
2022/12/08 00:44:38;;;;;;;;;;;18.60;59.40;;;;;;5058014;28;1969;-73
2022/12/08 00:47:04;;;;;;;;;;;18.60;59.40;;;;;;5057644;28;911;-73
2022/12/08 00:49:29;;;;;;;;;;;18.60;59.50;;;;;;5058772;28;1274;-73
2022/12/08 00:51:55;;;;;;;;;;;18.60;59.50;;;;;;5058957;28;859;-73
2022/12/08 00:54:21;;;;;;;;;;;18.60;59.50;;;;;;5060022;28;871;-73
2022/12/08 00:56:47;;;;;;;;;;;18.60;59.50;;;;;;5058163;28;859;-73
2022/12/08 00:59:12;;;;;;;;;;;18.60;59.50;;;;;;5057802;28;1375;-73
2022/12/08 01:01:38;;;;;;;;;;;18.60;59.50;;;;;;5049828;28;1018;-73
2022/12/08 01:04:04;;;;;;;;;;;18.60;59.50;;;;;;5058843;28;827;-73
2022/12/08 01:06:29;;;;;;;;;;;18.60;59.50;;;;;;5051194;28;1917;-73
2022/12/08 01:08:55;;;;;;;;;;;18.60;59.50;;;;;;5058617;28;820;-73
2022/12/08 01:11:20;;;;;;;;;;;18.60;59.50;;;;;;5039392;28;1240;-73
2022/12/08 01:13:46;;;;;;;;;;;18.60;59.50;;;;;;5059532;28;1180;-73
2022/12/08 01:16:21;;;;;;;;;;;18.60;59.50;;;;;;5060006;28;907;-73
2022/12/08 01:18:47;;;;;;;;;;;18.60;59.60;;;;;;5040459;28;868;-73
2022/12/08 01:21:12;;;;;;;;;;;18.60;59.50;;;;;;5041882;28;1474;-73
2022/12/08 01:23:37;;;;;;;;;;;18.60;59.60;;;;;;5046455;28;1215;-73
2022/12/08 01:26:06;;;;;;;;;;;18.60;59.60;;;;;;5058108;28;1898;-73
2022/12/08 01:28:32;;;;;;;;;;;18.60;59.60;;;;;;5059800;28;793;-72
2022/12/08 01:30:58;;;;;;;;;;;18.60;59.60;;;;;;5063296;28;1258;-73
2022/12/08 01:33:23;;;;;;;;;;;18.60;60.20;;;;;;5063769;28;800;-73
2022/12/08 01:35:49;;;;;;;;;;;18.60;59.60;;;;;;5045582;28;796;-73
2022/12/08 01:38:14;;;;;;;;;;;18.60;59.60;;;;;;5062552;28;839;-73
2022/12/08 01:40:40;;;;;;;;;;;18.60;59.60;;;;;;5045565;28;1362;-74
2022/12/08 01:43:05;;;;;;;;;;;18.60;59.60;;;;;;5063902;28;974;-74
2022/12/08 01:45:31;;;;;;;;;;;18.50;59.60;;;;;;5043536;28;1906;-73
2022/12/08 01:47:58;;;;;;;;;;;18.50;59.60;;;;;;5045852;28;871;-73
2022/12/08 01:50:23;;;;;;;;;;;18.60;59.60;;;;;;5064843;28;1236;-73
2022/12/08 01:52:50;;;;;;;;;;;18.50;59.60;;;;;;5058966;28;918;-73
2022/12/08 01:55:18;;;;;;;;;;;18.50;59.60;;;;;;5054622;28;852;-73
2022/12/08 01:57:45;;;;;;;;;;;18.50;59.60;;;;;;5061573;28;816;-74
2022/12/08 02:00:11;;;;;;;;;;;18.50;59.60;;;;;;5061283;28;1307;-72
2022/12/08 02:02:57;;;;;;;;;;;18.50;59.60;;;;;;5042182;28;1011;-73
2022/12/08 02:05:27;;;;;;;;;;;18.50;59.60;;;;;;5041844;28;1957;-73
2022/12/08 02:07:53;;;;;;;;;;;18.50;59.60;;;;;;5038140;28;949;-73
2022/12/08 02:10:19;;;;;;;;;;;18.50;59.60;;;;;;5044069;28;1256;-73
2022/12/08 02:12:44;;;;;;;;;;;18.50;59.60;;;;;;5046366;28;1304;-74
2022/12/08 02:15:10;;;;;;;;;;;18.50;59.60;;;;;;5046442;28;962;-73
2022/12/08 02:17:48;;;;;;;;;;;18.50;59.70;;;;;;5038328;28;2135;-73
2022/12/08 02:20:29;;;;;;;;;;;18.50;59.60;;;;;;5044865;28;1294;-73
2022/12/08 02:23:18;;;;;;;;;;;18.50;59.70;;;;;;5064769;28;954;-73
2022/12/08 02:25:46;;;;;;;;;;;18.50;59.70;;;;;;5053113;28;1953;-73
2022/12/08 02:28:12;;;;;;;;;;;18.50;59.70;;;;;;5062146;28;1231;-73
2022/12/08 02:30:37;;;;;;;;;;;18.50;59.70;;;;;;5062678;28;1275;-73
2022/12/08 02:33:21;;;;;;;;;;;18.50;59.70;;;;;;5064535;28;894;-73
2022/12/08 02:36:05;;;;;;;;;;;18.50;59.70;;;;;;5063246;28;943;-73
2022/12/08 02:38:37;;;;;;;;;;;18.50;59.70;;;;;;5062828;28;907;-73
2022/12/08 02:41:10;;;;;;;;;;;18.50;59.70;;;;;;5058346;28;1251;-73
2022/12/08 02:43:55;;;;;;;;;;;18.50;59.70;;;;;;5042833;28;905;-73
2022/12/08 02:46:23;;;;;;;;;;;18.50;59.70;;;;;;5058804;28;1957;-73
2022/12/08 02:48:49;;;;;;;;;;;18.50;59.60;;;;;;5044874;28;931;-73
2022/12/08 02:51:15;;;;;;;;;;;18.50;59.60;;;;;;5042051;28;1251;-73
2022/12/08 02:53:40;;;;;;;;;;;18.50;59.60;;;;;;5050845;28;1343;-73
2022/12/08 02:56:15;;;;;;;;;;;18.50;59.60;;;;;;5060965;28;798;-73
2022/12/08 02:58:53;;;;;;;;;;;18.50;59.60;;;;;;5062562;28;1042;-73
2022/12/08 03:01:23;;;;;;;;;;;18.50;59.60;;;;;;5043807;28;1212;-73
2022/12/08 03:04:03;;;;;;;;;;;18.50;59.60;;;;;;5050418;28;914;-74
2022/12/08 03:06:34;;;;;;;;;;;18.50;59.60;;;;;;5059469;28;1964;-71
2022/12/08 03:09:02;;;;;;;;;;;18.60;59.50;;;;;;5060588;28;1351;-72
2022/12/08 03:11:30;;;;;;;;;;;18.60;59.60;;;;;;5043103;28;911;-72
2022/12/08 03:13:56;;;;;;;;;;;18.50;59.50;;;;;;5042340;28;1383;-72
2022/12/08 03:16:23;;;;;;;;;;;18.60;59.50;;;;;;5049604;28;1006;-72
2022/12/08 03:18:50;;;;;;;;;;;18.60;59.50;;;;;;5044348;28;1265;-73
2022/12/08 03:21:16;;;;;;;;;;;18.60;59.50;;;;;;5041136;28;1375;-72
2022/12/08 03:23:41;;;;;;;;;;;18.60;59.50;;;;;;5041672;28;1027;-72
2022/12/08 03:26:11;;;;;;;;;;;18.50;59.50;;;;;;5042398;28;1922;-72
2022/12/08 03:28:36;;;;;;;;;;;18.50;59.50;;;;;;5044425;28;912;-72
2022/12/08 03:31:03;;;;;;;;;;;18.50;59.50;;;;;;5040037;28;1225;-72
2022/12/08 03:33:30;;;;;;;;;;;18.50;59.50;;;;;;5042260;28;883;-73
2022/12/08 03:35:55;;;;;;;;;;;18.60;59.50;;;;;;5040693;28;853;-72
2022/12/08 03:38:21;;;;;;;;;;;18.50;59.50;;;;;;5057286;28;1519;-73
2022/12/08 03:43:51;;;;;;;;;;;18.50;59.50;;;;;;4981943;28;1282;-72
2022/12/08 03:46:17;;;;;;;;;;;18.50;59.50;;;;;;4962375;28;1902;-72
2022/12/08 03:48:43;;;;;;;;;;;18.50;59.50;;;;;;5018070;28;1125;-73
2022/12/08 03:51:08;;;;;;;;;;;18.50;59.60;;;;;;5041137;28;1265;-72
2022/12/08 03:53:34;;;;;;;;;;;18.50;59.60;;;;;;5041812;28;898;-74
2022/12/08 03:55:59;;;;;;;;;;;18.50;59.60;;;;;;5043686;28;1496;-73
2022/12/08 03:58:25;;;;;;;;;;;18.50;59.60;;;;;;5060768;28;812;-73
2022/12/08 04:00:50;;;;;;;;;;;18.50;59.60;;;;;;5058920;28;1184;-72
2022/12/08 04:03:16;;;;;;;;;;;18.50;59.60;;;;;;5045370;28;870;-73
2022/12/08 04:05:41;;;;;;;;;;;18.50;59.60;;;;;;5060118;28;1926;-73
2022/12/08 04:08:07;;;;;;;;;;;18.50;59.60;;;;;;5062339;28;951;-72
2022/12/08 04:10:32;;;;;;;;;;;18.50;59.60;;;;;;5043700;28;1275;-73
2022/12/08 04:12:57;;;;;;;;;;;18.50;59.60;;;;;;5038993;28;1437;-73
2022/12/08 04:15:23;;;;;;;;;;;18.50;59.60;;;;;;5038282;28;1066;-72
2022/12/08 04:17:48;;;;;;;;;;;18.50;59.60;;;;;;5061034;28;1255;-71
2022/12/08 04:20:14;;;;;;;;;;;18.50;59.60;;;;;;5059745;28;1404;-70
2022/12/08 04:22:39;;;;;;;;;;;18.50;59.70;;;;;;5060921;28;1403;-71
2022/12/08 04:25:05;;;;;;;;;;;18.50;59.60;;;;;;5060965;28;1902;-72
2022/12/08 04:27:30;;;;;;;;;;;18.50;59.60;;;;;;5061618;28;1307;-72
2022/12/08 04:29:56;;;;;;;;;;;18.50;59.60;;;;;;5063015;28;1334;-72
2022/12/08 04:32:21;;;;;;;;;;;18.50;59.60;;;;;;5067533;28;1148;-75
2022/12/08 04:34:47;;;;;;;;;;;18.50;59.60;;;;;;5066333;28;1244;-72
2022/12/08 04:37:12;;;;;;;;;;;18.50;59.60;;;;;;5041962;28;1025;-72
2022/12/08 04:39:38;;;;;;;;;;;18.50;59.60;;;;;;5046922;28;1440;-70
2022/12/08 04:42:03;;;;;;;;;;;18.50;59.60;;;;;;5060982;28;1412;-70
2022/12/08 04:44:28;;;;;;;;;;;18.50;59.60;;;;;;5064634;28;1050;-73
2022/12/08 04:46:54;;;;;;;;;;;18.50;59.60;;;;;;5039766;28;1938;-73
2022/12/08 04:49:19;;;;;;;;;;;18.50;59.60;;;;;;5060455;28;1338;-73
2022/12/08 04:51:45;;;;;;;;;;;18.50;59.60;;;;;;5058009;28;998;-72
2022/12/08 04:54:10;;;;;;;;;;;18.50;59.60;;;;;;5044302;28;855;-71
2022/12/08 04:56:36;;;;;;;;;;;18.50;59.50;;;;;;5058347;28;1022;-73
2022/12/08 04:59:01;;;;;;;;;;;18.50;59.60;;;;;;5037739;28;1239;-72
2022/12/08 05:01:27;;;;;;;;;;;18.50;59.60;;;;;;5060131;28;967;-71
2022/12/08 05:03:52;;;;;;;;;;;18.50;59.60;;;;;;5037099;28;875;-70
2022/12/08 05:06:18;;;;;;;;;;;18.50;59.60;;;;;;5048713;28;1898;-73
2022/12/08 05:08:43;;;;;;;;;;;18.50;59.60;;;;;;5051602;28;986;-73
2022/12/08 05:11:09;;;;;;;;;;;18.50;59.50;;;;;;5060061;28;1259;-74
2022/12/08 05:13:34;;;;;;;;;;;18.50;59.50;;;;;;5040346;28;1360;-72
2022/12/08 05:16:03;;;;;;;;;;;18.50;59.50;;;;;;5055457;28;832;-72
2022/12/08 05:18:28;;;;;;;;;;;18.60;59.50;;;;;;5060954;28;1271;-73
2022/12/08 05:20:54;;;;;;;;;;;18.60;59.40;;;;;;5058666;28;1338;-71
2022/12/08 05:23:19;;;;;;;;;;;18.60;59.40;;;;;;5059771;28;812;-71
2022/12/08 05:25:45;;;;;;;;;;;18.60;59.30;;;;;;5059335;28;1993;-71
2022/12/08 05:28:10;;;;;;;;;;;18.60;59.30;;;;;;5039216;28;1593;-72
2022/12/08 05:30:36;;;;;;;;;;;18.60;59.20;;;;;;5059677;28;1365;-72
2022/12/08 05:33:01;;;;;;;;;;;18.70;59.20;;;;;;5057246;28;851;-71
2022/12/08 05:35:27;;;;;;;;;;;18.70;59.10;;;;;;5061171;28;883;-72
2022/12/08 05:37:52;;;;;;;;;;;18.70;59.10;;;;;;5061687;28;1038;-72
2022/12/08 05:40:18;;;;;;;;;;;18.70;59.00;;;;;;5059393;28;1243;-71
2022/12/08 05:42:43;;;;;;;;;;;18.70;59.00;;;;;;5043570;28;949;-71
2022/12/08 05:45:09;;;;;;;;;;;18.80;59.00;;;;;;5055994;28;1886;-72
2022/12/08 05:47:34;;;;;;;;;;;18.80;58.90;;;;;;5040941;28;1069;-72
2022/12/08 05:50:00;;;;;;;;;;;18.80;58.90;;;;;;5057414;28;1325;-72
2022/12/08 05:52:25;;;;;;;;;;;18.80;58.90;;;;;;5059762;28;879;-71
2022/12/08 05:54:51;;;;;;;;;;;18.80;58.80;;;;;;5057588;28;1870;-71
2022/12/08 05:57:16;;;;;;;;;;;18.80;58.80;;;;;;5039975;28;1317;-71
2022/12/08 05:59:42;;;;;;;;;;;18.80;58.80;;;;;;5040000;28;4722;-69
2022/12/08 06:02:07;;;;;;;;;;;18.80;58.80;;;;;;5050478;28;4941;-68
2022/12/08 06:04:33;;;;;;;;;;;18.80;58.70;;;;;;5054235;28;4318;-68
2022/12/08 06:06:58;;;;;;;;;;;18.80;58.70;;;;;;5053005;28;1977;-70
2022/12/08 06:09:24;;;;;;;;;;;18.90;58.80;;;;;;5055695;28;1355;-68
2022/12/08 06:11:49;;;;;;;;;;;18.90;58.70;;;;;;5054513;28;1034;-69
2022/12/08 06:14:15;;;;;;;;;;;19.00;58.50;;;;;;5056081;28;1269;-70
2022/12/08 06:16:40;;;;;;;;;;;19.20;58.50;;;;;;5055389;28;935;-71
2022/12/08 06:19:06;;;;;;;;;;;19.30;58.40;;;;;;5060949;28;1428;-70
2022/12/08 06:21:31;;;;;;;;;;;19.40;58.30;;;;;;5060677;28;1095;-70
2022/12/08 06:23:56;;;;;;;;;;;19.50;58.00;;;;;;5061524;28;855;-71
2022/12/08 06:26:22;;;;;;;;;;;19.60;57.80;;;;;;5056532;28;1914;-71
2022/12/08 06:28:48;;;;;;;;;;;19.80;57.60;;;;;;5059784;28;919;-70
2022/12/08 06:31:14;;;;;;;;;;;19.90;57.30;;;;;;5043143;28;1282;-70
2022/12/08 06:33:40;;;;;;;;;;;20.00;57.10;;;;;;5042859;28;891;-71
2022/12/08 06:36:05;;;;;;;;;;;20.10;56.90;;;;;;5059302;28;890;-72
2022/12/08 06:38:31;;;;;;;;;;;20.20;56.60;;;;;;5059490;28;1026;-71
2022/12/08 06:40:56;;;;;;;;;;;20.20;56.50;;;;;;5045183;28;1447;-72
2022/12/08 06:43:22;;;;;;;;;;;20.30;56.40;;;;;;5040933;28;1053;-72
2022/12/08 06:45:47;;;;;;;;;;;20.40;56.20;;;;;;5061699;28;1906;-72
2022/12/08 06:48:13;;;;;;;;;;;20.40;56.00;;;;;;5061381;28;899;-70
2022/12/08 06:50:38;;;;;;;;;;;20.50;55.90;;;;;;5061998;28;1244;-69
2022/12/08 06:53:04;;;;;;;;;;;20.50;55.80;;;;;;5060758;28;862;-71
2022/12/08 06:55:29;;;;;;;;;;;20.50;55.80;;;;;;5061647;28;1342;-70
2022/12/08 06:57:54;;;;;;;;;;;20.50;55.70;;;;;;5059226;28;824;-70
2022/12/08 07:00:20;;;;;;;;;;;20.50;55.70;;;;;;5056967;28;1353;-71
2022/12/08 07:02:45;;;;;;;;;;;20.60;55.70;;;;;;5059918;28;1301;-70
2022/12/08 07:05:11;;;;;;;;;;;20.60;55.70;;;;;;5058062;28;1906;-69
2022/12/08 07:07:36;;;;;;;;;;;20.60;55.70;;;;;;5059401;28;816;-69
2022/12/08 07:10:02;;;;;;;;;;;20.60;55.80;;;;;;5046202;28;1326;-69
2022/12/08 07:12:27;;;;;;;;;;;20.50;55.80;;;;;;5040865;28;989;-70
2022/12/08 07:14:53;;;;;;;;;;;20.50;55.80;;;;;;5059585;28;896;-69
2022/12/08 07:17:18;;;;;;;;;;;20.50;55.90;;;;;;5056089;28;1024;-69
2022/12/08 07:19:44;;;;;;;;;;;20.50;55.90;;;;;;5061513;28;1368;-70
2022/12/08 07:22:09;;;;;;;;;;;20.50;56.00;;;;;;5060338;28;879;-71
2022/12/08 07:24:35;;;;;;;;;;;20.50;56.00;;;;;;5058808;28;908;-71
2022/12/08 07:27:00;;;;;;;;;;;20.40;55.90;;;;;;5057047;28;1902;-70
2022/12/08 07:29:25;;;;;;;;;;;20.40;56.00;;;;;;5058836;28;1285;-70
2022/12/08 07:31:51;;;;;;;;;;;20.40;56.00;;;;;;5058806;28;1010;-70
2022/12/08 07:34:16;;;;;;;;;;;20.40;56.10;;;;;;5061259;28;884;-70
2022/12/08 07:36:42;;;;;;;;;;;20.40;56.10;;;;;;5039798;28;1290;-70
2022/12/08 07:39:08;;;;;;;;;;;20.40;56.20;;;;;;5058397;28;1435;-72
2022/12/08 07:41:33;;;;;;;;;;;20.40;56.20;;;;;;5052492;28;1884;-70
2022/12/08 07:43:58;;;;;;;;;;;20.30;56.20;;;;;;5062917;28;1411;-70
2022/12/08 07:46:24;;;;;;;;;;;20.30;56.30;;;;;;5057528;28;1906;-71
2022/12/08 07:48:51;;;;;;;;;;;20.30;56.40;;;;;;5063937;28;854;-70
2022/12/08 07:51:17;;;;;;;;;;;20.30;56.40;;;;;;5040519;28;2128;-70
2022/12/08 07:53:44;;;;;;;;;;;20.20;56.40;;;;;;5043518;28;999;-71
2022/12/08 07:56:10;;;;;;;;;;;20.20;56.40;;;;;;5048396;28;1369;-70
2022/12/08 07:58:35;;;;;;;;;;;20.20;56.50;;;;;;5042850;28;864;-71
2022/12/08 08:01:01;;;;;;;;;;;20.20;56.50;;;;;;5044224;28;1267;-69
2022/12/08 08:03:26;;;;;;;;;;;20.10;56.60;;;;;;5061155;28;942;-69
2022/12/08 08:05:51;;;;;;;;;;;20.10;56.60;;;;;;5040756;28;1957;-71
2022/12/08 08:08:17;;;;;;;;;;;20.10;56.70;;;;;;5060082;28;797;-71
2022/12/08 08:10:43;;;;;;;;;;;20.10;56.80;;;;;;5060118;28;1372;-72
2022/12/08 08:13:08;;;;;;;;;;;20.10;56.80;;;;;;5057905;28;973;-72
2022/12/08 08:15:34;;;;;;;;;;;20.10;56.90;;;;;;5042030;28;1148;-72
2022/12/08 08:17:59;;;;;;;;;;;20.00;56.90;;;;;;5057266;28;1019;-72
2022/12/08 08:20:25;;;;;;;;;;;20.00;56.90;;;;;;5062663;28;1271;-72
2022/12/08 08:22:50;;;;;;;;;;;20.00;57.00;;;;;;5057334;28;884;-72
2022/12/08 08:25:16;;;;;;;;;;;20.00;57.00;;;;;;5046720;28;1903;-72
2022/12/08 08:27:41;;;;;;;;;;;20.00;57.10;;;;;;5060851;28;1192;-72
2022/12/08 08:30:07;;;;;;;;;;;19.90;57.10;;;;;;5063218;28;1274;-72
2022/12/08 08:32:33;;;;;;;;;;;19.90;57.10;;;;;;5041594;28;804;-72
2022/12/08 08:34:58;;;;;;;;;;;19.90;57.10;;;;;;5059441;28;800;-70
2022/12/08 08:37:24;;;;;;;;;;;19.90;57.20;;;;;;5059102;28;851;-70
2022/12/08 08:39:49;;;;;;;;;;;19.90;57.10;;;;;;5058065;28;1266;-71
2022/12/08 08:42:15;;;;;;;;;;;19.90;57.20;;;;;;5058503;28;1065;-70
2022/12/08 08:44:40;;;;;;;;;;;19.90;57.20;;;;;;5058466;28;882;-71
2022/12/08 08:47:06;;;;;;;;;;;19.90;57.20;;;;;;5058972;28;1910;-70
2022/12/08 08:49:31;;;;;;;;;;;19.90;57.20;;;;;;5056903;28;1357;-73
2022/12/08 08:51:56;;;;;;;;;;;19.90;57.30;;;;;;5058515;28;816;-72
2022/12/08 08:54:22;;;;;;;;;;;19.80;57.20;;;;;;5061082;28;879;-71
2022/12/08 08:56:47;;;;;;;;;;;19.90;57.30;;;;;;5056348;28;919;-73
2022/12/08 08:59:13;;;;;;;;;;;19.80;57.20;;;;;;5058345;28;1279;-73
2022/12/08 09:01:38;;;;;;;;;;;19.80;57.30;;;;;;5042855;28;1386;-73
2022/12/08 09:04:04;;;;;;;;;;;19.80;57.20;;;;;;5061227;28;879;-73
2022/12/08 09:06:29;;;;;;;;;;;19.90;57.30;;;;;;5053461;28;1894;-72
2022/12/08 09:08:55;;;;;;;;;;;19.90;57.30;;;;;;5048825;28;1210;-74
2022/12/08 09:11:22;;;;;;;;;;;19.90;57.30;;;;;;5055935;28;1962;-72
2022/12/08 09:13:48;;;;;;;;;;;19.90;57.30;;;;;;5062043;28;1480;-72
2022/12/08 09:16:13;;;;;;;;;;;19.80;57.20;;;;;;5046350;28;1527;-72
2022/12/08 09:18:39;;;;;;;;;;;19.80;57.20;;;;;;5060638;28;1264;-73
2022/12/08 09:21:10;;;;;;;;;;;19.80;57.20;;;;;;5061408;28;1466;-73
2022/12/08 09:23:35;;;;;;;;;;;19.90;57.20;;;;;;5057339;28;839;-72
2022/12/08 09:26:01;;;;;;;;;;;19.90;57.20;;;;;;5056278;28;1894;-73
2022/12/08 09:28:27;;;;;;;;;;;19.90;57.20;;;;;;5041209;28;835;-73
2022/12/08 09:30:52;;;;;;;;;;;19.90;57.10;;;;;;5057690;28;1298;-73
2022/12/08 09:33:18;;;;;;;;;;;19.80;57.10;;;;;;5039743;28;883;-73
2022/12/08 09:35:44;;;;;;;;;;;19.80;57.10;;;;;;5057597;28;868;-73
2022/12/08 09:38:09;;;;;;;;;;;19.80;57.20;;;;;;5055187;28;1273;-73
2022/12/08 09:40:36;;;;;;;;;;;19.90;57.20;;;;;;5059490;28;1254;-73
2022/12/08 09:43:08;;;;;;;;;;;19.80;57.20;;;;;;5026481;28;1262;-73
2022/12/08 09:45:34;;;;;;;;;;;19.80;57.20;;;;;;5057296;28;1965;-73
2022/12/08 09:48:06;;;;;;;;;;;19.80;57.20;;;;;;5058950;28;1299;-72
2022/12/08 09:50:39;;;;;;;;;;;19.80;57.20;;;;;;5043473;28;1346;-71
2022/12/08 09:53:08;;;;;;;;;;;19.80;57.20;;;;;;5059003;28;816;-70
2022/12/08 09:55:50;;;;;;;;;;;19.80;57.30;;;;;;5029088;28;1449;-71
2022/12/08 09:58:20;;;;;;;;;;;19.80;57.30;;;;;;5043527;28;879;-71
2022/12/08 10:00:45;;;;;;;;;;;19.80;57.30;;;;;;5061971;28;1295;-70
2022/12/08 10:03:11;;;;;;;;;;;19.80;57.30;;;;;;5060874;28;1272;-70
2022/12/08 10:05:38;;;;;;;;;;;19.80;57.30;;;;;;5062343;28;1906;-74
2022/12/08 10:08:03;;;;;;;;;;;19.80;57.30;;;;;;5052290;28;2109;-73
2022/12/08 10:10:40;;;;;;;;;;;19.80;57.30;;;;;;5063213;28;1355;-73
2022/12/08 10:13:18;;;;;;;;;;;19.80;57.40;;;;;;5041644;28;1560;-72
2022/12/08 10:16:20;;;;;;;;;;;19.80;57.40;;;;;;5063405;28;1240;-73
2022/12/08 10:18:46;;;;;;;;;;;19.80;57.40;;;;;;4981965;28;1327;-71
2022/12/08 10:21:16;;;;;;;;;;;19.80;57.40;;;;;;5025257;28;1293;-71
2022/12/08 10:23:42;;;;;;;;;;;19.70;57.40;;;;;;5045833;28;829;-72
2022/12/08 10:26:12;;;;;;;;;;;19.70;57.40;;;;;;5051830;28;1956;-72
2022/12/08 10:28:37;;;;;;;;;;;19.70;57.40;;;;;;5042094;28;927;-71
2022/12/08 10:31:02;;;;;;;;;;;19.70;57.40;;;;;;5061037;28;1351;-73
2022/12/08 10:33:29;;;;;;;;;;;19.70;57.40;;;;;;5059580;28;1114;-73
2022/12/08 10:35:57;;;;;;;;;;;19.70;57.40;;;;;;5043209;28;946;-74
2022/12/08 10:38:25;;;;;;;;;;;19.70;57.50;;;;;;5061606;28;1585;-72
2022/12/08 10:40:51;;;;;;;;;;;19.70;57.40;;;;;;5063473;28;1353;-72
2022/12/08 10:43:19;;;;;;;;;;;19.70;57.40;;;;;;5041856;28;924;-72
2022/12/08 10:45:44;;;;;;;;;;;19.70;57.50;;;;;;5059235;28;1902;-71
2022/12/08 10:48:13;;;;;;;;;;;19.70;57.50;;;;;;5059371;28;876;-72
2022/12/08 10:50:41;;;;;;;;;;;19.70;57.50;;;;;;5062630;28;1263;-72
2022/12/08 10:53:06;;;;;;;;;;;19.70;57.50;;;;;;5060947;28;880;-73
2022/12/08 10:55:39;;;;;;;;;;;19.70;57.50;;;;;;5057857;28;864;-72
2022/12/08 10:58:04;;;;;;;;;;;19.70;57.60;;;;;;5060664;28;948;-72
2022/12/08 11:00:30;;;;;;;;;;;19.70;57.60;;;;;;5059216;28;1256;-72
2022/12/08 11:02:59;;;;;;;;;;;19.70;57.60;;;;;;5040182;28;865;-71
2022/12/08 11:05:26;;;;;;;;;;;19.70;57.60;;;;;;5043646;28;1961;-72
2022/12/08 11:07:52;;;;;;;;;;;19.60;57.50;;;;;;5040865;28;1581;-72
2022/12/08 11:10:18;;;;;;;;;;;19.70;57.60;;;;;;5039999;28;1382;-72
2022/12/08 11:12:44;;;;;;;;;;;19.60;57.60;;;;;;5048012;28;1298;-72
2022/12/08 11:15:13;;;;;;;;;;;19.60;57.60;;;;;;5053216;28;1297;-72
2022/12/08 11:17:38;;;;;;;;;;;19.60;57.60;;;;;;5041407;28;1660;-72
2022/12/08 11:20:10;;;;;;;;;;;19.60;57.60;;;;;;5057259;28;1311;-72
2022/12/08 11:22:42;;;;;;;;;;;19.60;57.60;;;;;;5059452;28;2112;-72
2022/12/08 11:25:09;;;;;;;;;;;19.60;57.60;;;;;;5040591;28;1961;-73
2022/12/08 11:27:38;;;;;;;;;;;19.60;57.60;;;;;;5060399;28;1946;-72
2022/12/08 11:30:05;;;;;;;;;;;19.60;57.60;;;;;;5040999;28;1514;-73
2022/12/08 11:32:31;;;;;;;;;;;19.60;57.60;;;;;;5050598;28;2325;-73
2022/12/08 11:34:58;;;;;;;;;;;19.60;57.60;;;;;;5059056;28;1923;-72
2022/12/08 11:37:25;;;;;;;;;;;19.60;57.70;;;;;;5043295;28;1939;-73
2022/12/08 11:39:51;;;;;;;;;;;19.60;57.70;;;;;;5042389;28;2033;-72
2022/12/08 11:42:17;;;;;;;;;;;19.60;57.70;;;;;;5049966;28;1584;-72
2022/12/08 11:44:45;;;;;;;;;;;19.60;57.80;;;;;;5039281;28;881;-73
2022/12/08 11:47:16;;;;;;;;;;;19.60;57.70;;;;;;5056525;28;1917;-72
2022/12/08 11:49:41;;;;;;;;;;;19.60;57.70;;;;;;5041088;28;1304;-73
2022/12/08 11:52:11;;;;;;;;;;;19.60;57.70;;;;;;5043653;28;888;-73
2022/12/08 11:54:44;;;;;;;;;;;19.60;57.70;;;;;;5059551;28;835;-73
2022/12/08 11:57:19;;;;;;;;;;;19.50;57.70;;;;;;5037043;28;883;-72
2022/12/08 11:59:48;;;;;;;;;;;19.50;57.70;;;;;;5044654;28;1288;-72
2022/12/08 12:02:14;;;;;;;;;;;19.50;57.80;;;;;;5058077;28;1429;-72
2022/12/08 12:04:45;;;;;;;;;;;19.60;57.80;;;;;;5041904;28;1882;-72
2022/12/08 12:07:29;;;;;;;;;;;19.50;57.70;;;;;;5042389;28;1902;-71
2022/12/08 12:09:55;;;;;;;;;;;19.60;57.80;;;;;;5059798;28;1370;-72
2022/12/08 12:12:23;;;;;;;;;;;19.50;57.80;;;;;;5061229;28;1182;-70
2022/12/08 12:14:57;;;;;;;;;;;19.50;57.80;;;;;;5061574;28;1354;-70
2022/12/08 12:17:29;;;;;;;;;;;19.50;57.80;;;;;;5059254;28;812;-69
2022/12/08 12:19:54;;;;;;;;;;;19.50;57.80;;;;;;5056677;28;1304;-71
2022/12/08 12:22:20;;;;;;;;;;;19.50;57.90;;;;;;5037310;28;848;-69
2022/12/08 12:24:46;;;;;;;;;;;19.50;57.90;;;;;;5042510;28;880;-70
2022/12/08 12:27:12;;;;;;;;;;;19.50;57.90;;;;;;5040379;28;1971;-69
2022/12/08 12:29:37;;;;;;;;;;;19.50;57.90;;;;;;5058604;28;1368;-70
2022/12/08 12:32:03;;;;;;;;;;;19.50;57.90;;;;;;5060113;28;1318;-69
2022/12/08 12:34:30;;;;;;;;;;;19.50;58.00;;;;;;5041586;28;904;-71
2022/12/08 12:37:02;;;;;;;;;;;19.50;58.00;;;;;;5050385;28;2066;-73
2022/12/08 12:39:28;;;;;;;;;;;19.50;58.00;;;;;;5059304;28;1526;-74
2022/12/08 12:41:54;;;;;;;;;;;19.40;57.90;;;;;;5027263;28;1493;-71
2022/12/08 12:44:38;;;;;;;;;;;19.50;58.00;;;;;;5041608;28;2289;-71
2022/12/08 12:47:06;;;;;;;;;;;19.40;58.00;;;;;;5038392;28;1968;-70
2022/12/08 12:49:37;;;;;;;;;;;19.40;58.00;;;;;;5041580;28;1520;-70
2022/12/08 12:52:23;;;;;;;;;;;19.50;58.00;;;;;;5056204;28;1022;-71
2022/12/08 12:54:48;;;;;;;;;;;19.40;58.00;;;;;;5046793;28;1263;-72
2022/12/08 12:57:15;;;;;;;;;;;19.40;58.00;;;;;;5055419;28;867;-73
2022/12/08 12:59:44;;;;;;;;;;;19.40;58.00;;;;;;5063360;28;1331;-72
2022/12/08 13:02:33;;;;;;;;;;;19.40;58.00;;;;;;5056255;28;879;-72
2022/12/08 13:04:58;;;;;;;;;;;19.40;58.00;;;;;;5045575;28;1272;-72
2022/12/08 13:07:33;;;;;;;;;;;19.50;58.00;;;;;;5055365;28;1963;-72
2022/12/08 13:10:00;;;;;;;;;;;19.40;58.00;;;;;;5058800;28;1735;-72
2022/12/08 13:12:27;;;;;;;;;;;19.40;58.00;;;;;;5058207;28;902;-72
2022/12/08 13:14:53;;;;;;;;;;;19.40;58.00;;;;;;5043188;28;1222;-72
2022/12/08 13:17:27;;;;;;;;;;;19.40;58.00;;;;;;5045149;28;1006;-72
2022/12/08 13:19:56;;;;;;;;;;;19.40;58.00;;;;;;5040843;28;1457;-72
2022/12/08 13:22:48;;;;;;;;;;;19.40;58.00;;;;;;5040526;28;953;-72
2022/12/08 13:25:32;;;;;;;;;;;19.40;58.00;;;;;;5027787;28;1902;-72
2022/12/08 13:27:59;;;;;;;;;;;19.40;58.10;;;;;;5060336;28;820;-72
2022/12/08 13:30:41;;;;;;;;;;;19.40;58.10;;;;;;5044263;28;1379;-72
2022/12/08 13:33:11;;;;;;;;;;;19.40;58.10;;;;;;5052916;28;902;-74
2022/12/08 13:35:38;;;;;;;;;;;19.40;58.10;;;;;;5042635;28;865;-73
2022/12/08 13:38:04;;;;;;;;;;;19.40;58.10;;;;;;5045938;28;903;-73
2022/12/08 13:40:29;;;;;;;;;;;19.40;58.10;;;;;;5053595;28;1268;-72
2022/12/08 13:43:13;;;;;;;;;;;19.40;58.10;;;;;;5051859;28;1369;-73
2022/12/08 13:45:39;;;;;;;;;;;19.40;58.20;;;;;;5062349;28;1914;-72
2022/12/08 13:48:09;;;;;;;;;;;19.40;58.10;;;;;;5045143;28;900;-72
2022/12/08 13:50:35;;;;;;;;;;;19.30;58.10;;;;;;5040784;28;1339;-73
2022/12/08 13:53:01;;;;;;;;;;;19.40;58.20;;;;;;5046996;28;927;-72
2022/12/08 13:55:27;;;;;;;;;;;19.40;58.20;;;;;;5056394;28;1423;-73
2022/12/08 13:57:53;;;;;;;;;;;19.40;58.20;;;;;;5036933;28;929;-74
2022/12/08 14:00:19;;;;;;;;;;;19.30;58.20;;;;;;5041119;28;1347;-74
2022/12/08 14:02:45;;;;;;;;;;;19.40;58.20;;;;;;5042301;28;1145;-74
2022/12/08 14:05:11;;;;;;;;;;;19.40;58.20;;;;;;5042234;28;1929;-74
2022/12/08 14:07:37;;;;;;;;;;;19.40;58.20;;;;;;5040448;28;970;-74
2022/12/08 14:10:05;;;;;;;;;;;19.30;58.20;;;;;;5040834;28;1267;-74
2022/12/08 14:12:31;;;;;;;;;;;19.30;58.20;;;;;;5041860;28;1253;-73
2022/12/08 14:14:57;;;;;;;;;;;19.30;58.30;;;;;;5062146;28;1344;-73
2022/12/08 14:17:22;;;;;;;;;;;19.30;58.30;;;;;;5044265;28;911;-75
2022/12/08 14:20:11;;;;;;;;;;;19.30;58.30;;;;;;5041291;28;1500;-73
2022/12/08 14:22:37;;;;;;;;;;;19.30;58.30;;;;;;5050136;28;1134;-73
2022/12/08 14:25:03;;;;;;;;;;;19.30;58.30;;;;;;5041240;28;839;-73
2022/12/08 14:27:32;;;;;;;;;;;19.30;58.30;;;;;;5058183;28;1899;-74
2022/12/08 14:29:59;;;;;;;;;;;19.30;58.40;;;;;;5042484;28;1288;-74
2022/12/08 14:32:32;;;;;;;;;;;19.30;58.40;;;;;;5043314;28;1261;-73
2022/12/08 14:35:06;;;;;;;;;;;19.20;58.40;;;;;;5045449;28;828;-73
2022/12/08 14:37:33;;;;;;;;;;;19.20;58.40;;;;;;5060449;28;946;-73
2022/12/08 14:40:18;;;;;;;;;;;19.20;58.40;;;;;;5038299;28;1310;-72
2022/12/08 14:43:16;;;;;;;;;;;19.20;58.50;;;;;;5059485;28;1265;-72